Data for 07/24/2013

Time Sea-Level Adjusted Pressure Absolute Pressure Temperature Relative Humidity Dew Point   
(mb) (inHg) (mb) (inHg) (C) (F) (%) (C) (F)
00:05 1022 30.18 851 25.13 21.1 70 39 6.9 44.4
00:10 1022 30.18 851 25.13 21 69.8 40 6.9 44.5
00:15 1022 30.18 851 25.13 20.9 69.6 40 6.9 44.5
00:20 1022 30.18 851 25.13 20.8 69.5 40 7 44.5
00:25 1022 30.18 851 25.13 20.8 69.4 40 6.9 44.5
00:30 1022 30.18 851 25.13 20.7 69.2 41 7.1 44.8
00:35 1022 30.18 851 25.13 20.6 69.1 41 7 44.6
00:40 1022 30.18 851 25.13 20.5 69 41 7.1 44.8
00:45 1022 30.18 851 25.13 20.5 68.8 41 7.1 44.7
00:50 1022 30.18 851 25.13 20.4 68.6 42 7.2 44.9
00:55 1022 30.18 851 25.13 20.2 68.3 43 7.2 45
01:00 1022 30.18 851 25.13 20.1 68.1 43 7.2 45
01:05 1022 30.18 851 25.13 20 67.9 43 7.2 44.9
01:10 1022 30.18 851 25.13 19.9 67.8 43 7.2 45
01:15 1022 30.18 851 25.13 19.8 67.7 43 7.2 44.9
01:20 1022 30.18 851 25.13 19.8 67.7 43 7.2 44.9
01:25 1022 30.18 851 25.13 19.8 67.6 44 7.3 45.2
01:30 1022 30.18 851 25.13 19.7 67.4 44 7.2 45
01:35 1022 30.18 851 25.13 19.7 67.4 44 7.3 45.1
01:40 1022 30.18 851 25.13 19.5 67.2 44 7.3 45.1
01:45 1022 30.18 851 25.13 19.5 67.1 44 7.1 44.8
01:50 1022 30.18 851 25.13 19.6 67.2 44 7.2 45
01:55 1022 30.18 851 25.13 19.5 67.2 44 7.2 44.9
02:00 1022 30.18 851 25.13 19.5 67.1 44 7.1 44.8
02:05 1022 30.18 851 25.13 19.7 67.4 44 7.1 44.8
02:10 1022 30.18 851 25.13 19.8 67.6 43 7 44.6
02:15 1022 30.18 851 25.13 19.8 67.7 43 7.1 44.8
02:20 1022 30.18 851 25.13 19.8 67.6 43 7 44.7
02:25 1022 30.18 851 25.13 19.8 67.6 44 7.2 45
02:30 1022 30.18 851 25.13 19.6 67.3 44 7.2 44.9
02:35 1022 30.18 851 25.13 19.5 67.1 44 7.2 45
02:40 1022 30.18 851 25.13 19.4 66.9 45 7.2 45
02:45 1022 30.18 851 25.13 19.4 66.9 45 7.2 44.9
02:50 1022 30.18 851 25.13 19.4 66.9 45 7.4 45.3
02:55 1022 30.18 851 25.13 19.3 66.8 45 7.3 45.1
03:00 1022 30.18 851 25.13 19.3 66.8 45 7.3 45.2
03:05 1022 30.18 851 25.13 19.3 66.7 45 7.3 45.1
03:10 1022 30.18 851 25.13 19.3 66.7 46 7.3 45.2
03:15 1022 30.18 851 25.13 19.2 66.5 46 7.3 45.2
03:20 1022 30.18 851 25.13 19.2 66.5 46 7.4 45.3
03:25 1022 30.18 851 25.13 19.1 66.4 46 7.4 45.3
03:30 1022 30.18 851 25.13 19.1 66.4 46 7.5 45.5
03:35 1022 30.18 851 25.13 19.1 66.4 46 7.5 45.5
03:40 1022 30.18 851 25.13 19.2 66.5 46 7.5 45.4
03:45 1022 30.18 851 25.13 19.2 66.6 46 7.5 45.5
03:50 1022 30.18 851 25.13 19.2 66.6 46 7.5 45.5
03:55 1022 30.18 851 25.13 19.2 66.6 46 7.5 45.5
04:00 1022 30.18 851 25.13 19.2 66.6 46 7.6 45.6
04:05 1022 30.18 851 25.13 19.1 66.4 47 7.6 45.6
04:10 1022 30.18 851 25.13 19 66.3 47 7.5 45.5
04:15 1022 30.18 851 25.13 19 66.3 47 7.6 45.7
04:20 1022 30.18 851 25.13 18.9 66 47 7.5 45.5
04:25 1022 30.18 851 25.13 18.9 66 47 7.5 45.5
04:30 1022 30.18 851 25.13 18.9 66.1 47 7.5 45.5
04:35 1022 30.18 851 25.13 18.9 65.9 47 7.6 45.6
04:40 1022 30.18 851 25.13 18.8 65.8 47 7.4 45.3
04:45 1022 30.18 851 25.13 18.8 65.8 47 7.5 45.5
04:50 1022 30.18 851 25.13 18.7 65.7 47 7.4 45.4
04:55 1022 30.18 851 25.13 18.7 65.6 48 7.5 45.5
05:00 1022 30.18 851 25.13 18.7 65.6 48 7.5 45.5
05:05 1022 30.18 851 25.13 18.7 65.6 48 7.5 45.5
05:10 1022 30.18 851 25.13 18.7 65.6 48 7.5 45.6
05:15 1022 30.18 851 25.13 18.7 65.6 48 7.5 45.6
05:20 1022 30.18 851 25.13 18.7 65.6 48 7.5 45.6
05:25 1022 30.18 851 25.13 18.7 65.7 47 7.5 45.4
05:30 1022 30.18 851 25.13 18.8 65.8 47 7.4 45.3
05:35 1022 30.18 851 25.13 18.8 65.9 47 7.2 45
05:40 1022 30.18 851 25.13 18.9 66 46 7 44.6
05:45 1022 30.18 851 25.13 19 66.2 46 7.3 45.1
05:50 1022 30.18 851 25.13 18.9 66 47 7.3 45.2
05:55 1022 30.18 851 25.13 18.8 65.9 46 7 44.6
06:00 1022 30.18 851 25.13 18.9 65.9 46 7.2 45
06:05 1022 30.18 851 25.13 18.8 65.9 46 7 44.6
06:10 1022 30.18 851 25.13 18.7 65.7 45 6.7 44
06:15 1022 30.18 851 25.13 18.8 65.8 45 6.8 44.2
06:20 1022 30.18 851 25.13 18.8 65.9 46 7.1 44.8
06:25 1022 30.18 851 25.13 18.8 65.9 46 7.1 44.8
06:30 1022 30.18 851 25.13 18.9 66 46 7 44.7
06:35 1022 30.18 851 25.13 19 66.1 45 6.8 44.3
06:40 1022 30.18 851 25.13 19 66.2 46 7.1 44.8
06:45 1022 30.18 851 25.13 19 66.3 46 7.2 44.9
06:50 1022 30.18 851 25.13 19.1 66.4 45 7.2 44.9
06:55 1022 30.18 851 25.13 19.2 66.6 43 6.5 43.7
07:00 1022 30.18 851 25.13 19.4 66.9 42 6.1 43
07:05 1022 30.18 851 25.13 19.5 67.1 41 6 42.7
07:10 1022 30.18 851 25.13 19.6 67.2 41 6.1 43
07:15 1022 30.18 851 25.13 19.7 67.4 42 6.5 43.6
07:20 1022 30.18 851 25.13 19.7 67.4 41 6.3 43.3
07:25 1022 30.18 851 25.13 19.8 67.6 41 6.5 43.6
07:30 1022 30.18 851 25.13 19.9 67.9 41 6.5 43.8
07:35 1022 30.18 851 25.13 20 68 41 6.5 43.7
07:40 1022 30.18 851 25.13 20.1 68.2 40 6.4 43.5
07:45 1022 30.18 851 25.13 20.3 68.5 39 6 42.8
07:50 1022 30.18 851 25.13 20.5 68.9 38 6 42.7
07:55 1022 30.18 851 25.13 20.9 69.5 37 5.8 42.4
08:00 1022 30.18 851 25.13 21 69.7 40 7 44.7
08:05 1022 30.18 851 25.13 20.8 69.4 40 7 44.6
08:10 1022 30.18 851 25.13 20.9 69.6 43 7.9 46.3
08:15 1022 30.18 851 25.13 20.8 69.5 43 7.9 46.2
08:20 1022 30.18 851 25.13 20.8 69.4 43 7.9 46.2
08:25 1022 30.18 851 25.13 20.9 69.7 43 7.9 46.2
08:30 1022 30.18 851 25.13 20.8 69.4 42 7.6 45.7
08:35 1022 30.18 851 25.13 21.1 70 42 8 46.4
08:40 1022 30.18 851 25.13 21.3 70.4 40 7.4 45.4
08:45 1022 30.18 851 25.13 21.2 70.1 40 7.4 45.3
08:50 1022 30.18 851 25.13 21.3 70.4 40 7.4 45.3
08:55 1022 30.18 851 25.13 21.4 70.4 37 6.4 43.5
09:00 1022 30.18 851 25.13 21.6 70.8 39 7.2 45
09:05 1022 30.18 851 25.13 22.1 71.8 35 6.2 43.2
09:10 1022 30.18 851 25.13 22.8 73 34 6.3 43.3
09:15 1022 30.18 851 25.13 22.5 72.4 36 6.7 44.1
09:20 1022 30.18 851 25.13 22.2 71.9 36 6.4 43.6
09:25 1022 30.18 851 25.13 22.8 73.1 34 6.4 43.5
09:30 1022 30.18 851 25.13 23.1 73.6 37 7.7 45.8
09:35 1022 30.18 851 25.13 23.5 74.2 33 6.5 43.6
09:40 1022 30.18 851 25.13 23.5 74.3 33 6.7 44.1
09:45 1022 30.18 851 25.13 23.4 74.1 34 6.9 44.5
09:50 1021 30.15 851 25.13 23.5 74.3 33 6.7 44.1
09:55 1021 30.15 851 25.13 22.9 73.2 33 6 42.9
10:00 1021 30.15 851 25.13 23.8 74.9 32 6.2 43.1
10:05 1021 30.15 851 25.13 24.2 75.6 32 6.6 43.8
10:10 1021 30.15 851 25.13 23.4 74.1 33 6.3 43.3
10:15 1021 30.15 850 25.1 23.7 74.6 32 6.4 43.4
10:20 1021 30.15 850 25.1 23.6 74.4 34 7 44.6
10:25 1021 30.15 851 25.13 23.9 74.9 32 6.6 43.9
10:30 1021 30.15 850 25.1 24.8 76.6 31 6.6 43.9
10:35 1021 30.15 850 25.1 25.5 78 30 7 44.6
10:40 1021 30.15 850 25.1 25.5 77.8 31 7.5 45.5
10:45 1021 30.15 850 25.1 25.1 77.1 31 7.1 44.8
10:50 1021 30.15 850 25.1 25.6 78 31 7.4 45.4
10:55 1021 30.15 850 25.1 26.1 79 29 7.1 44.8
11:00 1021 30.15 850 25.1 25.9 78.7 29 6.9 44.5
11:05 1021 30.15 850 25.1 25.7 78.2 31 7.4 45.3
11:10 1021 30.15 850 25.1 26.3 79.4 29 6.9 44.4
11:15 1021 30.15 850 25.1 27.2 81 27 7.1 44.7
11:20 1021 30.15 850 25.1 27.2 81 27 6.9 44.5
11:25 1021 30.15 850 25.1 27.4 81.3 28 7.5 45.4
11:30 1021 30.15 850 25.1 27.2 80.9 27 6.9 44.4
11:35 1021 30.15 850 25.1 27.9 82.2 26 7.2 44.9
11:40 1021 30.15 850 25.1 27.2 81 27 7.1 44.7
11:45 1021 30.15 850 25.1 27.6 81.7 27 7.1 44.9
11:50 1021 30.15 850 25.1 28.2 82.7 26 7.1 44.8
11:55 1020 30.12 850 25.1 28.3 83 26 7.2 44.9
12:00 1020 30.12 850 25.1 27.9 82.2 26 6.9 44.4
12:05 1020 30.12 850 25.1 27.8 82.1 26 7 44.6
12:10 1020 30.12 850 25.1 28.3 83 25 6.8 44.2
12:15 1020 30.12 849 25.07 29.1 84.4 23 6.5 43.7
12:20 1020 30.12 849 25.07 29.6 85.2 24 7.3 45.1
12:25 1020 30.12 849 25.07 29.6 85.3 22 5.8 42.5
12:30 1020 30.12 849 25.07 29.5 85.2 24 6.9 44.5
12:35 1020 30.12 849 25.07 30.1 86.1 22 6.6 43.8
12:40 1020 30.12 849 25.07 29.6 85.2 24 7.1 44.9
12:45 1020 30.12 849 25.07 30.2 86.4 21 5.7 42.3
12:50 1020 30.12 849 25.07 30.7 87.2 21 6.3 43.3
12:55 1020 30.12 849 25.07 31.3 88.3 21 6.5 43.7
13:00 1020 30.12 849 25.07 31.1 87.9 21 6.3 43.3
13:05 1020 30.12 849 25.07 31.6 88.8 20 6 42.8
13:10 1020 30.12 849 25.07 31.6 89 20 6.6 43.9
13:15 1020 30.12 849 25.07 31 87.9 20 5.5 41.8
13:20 1020 30.12 849 25.07 31.3 88.4 18 4.7 40.5
13:25 1020 30.12 849 25.07 31.2 88.2 15 2.1 35.8
13:30 1020 30.12 849 25.07 32 89.6 15 2.5 36.5
13:35 1020 30.12 849 25.07 32.6 90.8 14 1.9 35.4
13:40 1020 30.12 849 25.07 32.2 90 14 1.4 34.6
13:45 1020 30.12 849 25.07 31 87.8 14 1 33.8
13:50 1020 30.12 849 25.07 31.4 88.6 14 0.8 33.4
13:55 1020 30.12 849 25.07 31.1 88 14 0.6 33.1
14:00 1020 30.12 849 25.07 31.3 88.4 15 2.4 36.3
14:05 1020 30.12 849 25.07 31 87.9 17 3.7 38.7
14:10 1020 30.12 849 25.07 31.7 89.1 15 2.2 35.9
14:15 1019 30.09 849 25.07 32.7 90.9 13 1.3 34.3
14:20 1019 30.09 849 25.07 32.5 90.5 14 2.3 36.2
14:25 1019 30.09 849 25.07 32.6 90.7 15 3.2 37.8
14:30 1019 30.09 849 25.07 31.8 89.2 14 1.6 34.8
14:35 1019 30.09 849 25.07 31.4 88.6 14 0.9 33.6
14:40 1019 30.09 849 25.07 31.3 88.3 15 1.7 35.1
14:45 1019 30.09 849 25.07 31.6 88.9 15 1.9 35.5
14:50 1019 30.09 848 25.04 31.6 88.8 15 2.5 36.4
14:55 1019 30.09 848 25.04 31.6 88.9 12 -0.6 30.9
15:00 1019 30.09 848 25.04 31.8 89.3 12 -1.1 30.1
15:05 1019 30.09 848 25.04 32.1 89.9 11 -2.3 27.9
15:10 1019 30.09 848 25.04 32.4 90.3 10 -3.4 25.9
15:15 1019 30.09 848 25.04 32.6 90.7 9 -4.1 24.6
15:20 1019 30.09 848 25.04 32.8 91 10 -2.5 27.5
15:25 1019 30.09 848 25.04 32.8 91 10 -2.9 26.7
15:30 1019 30.09 848 25.04 32.4 90.2 10 -2.7 27.1
15:35 1019 30.09 848 25.04 32.3 90.2 9 -4.5 23.8
15:40 1019 30.09 848 25.04 31.7 89 10 -3.7 25.4
15:45 1019 30.09 848 25.04 31.3 88.4 10 -3.2 26.3
15:50 1019 30.09 848 25.04 31.8 89.2 10 -3.2 26.2
15:55 1019 30.09 848 25.04 32 89.7 10 -3.1 26.5
16:00 1019 30.09 848 25.04 32.2 90 10 -2.9 26.8
16:05 1019 30.09 848 25.04 32.1 89.8 10 -3.3 26
16:10 1019 30.09 848 25.04 31.8 89.2 11 -1.9 28.7
16:15 1019 30.09 848 25.04 31.9 89.5 10 -2.8 27
16:20 1019 30.09 848 25.04 32.4 90.4 10 -3.2 26.3
16:25 1019 30.09 848 25.04 32.1 89.8 12 -0.9 30.4
16:30 1019 30.09 848 25.04 31.6 88.9 10 -3.3 26.1
16:35 1019 30.09 848 25.04 31.8 89.2 9 -4.6 23.6
16:40 1019 30.09 848 25.04 31.4 88.4 9 -5.2 22.6
16:45 1019 30.09 848 25.04 31.2 88.1 9 -5.3 22.5
16:50 1019 30.09 848 25.04 31.5 88.6 9 -5 23
16:55 1019 30.09 848 25.04 31.2 88.2 10 -3.3 26
17:00 1019 30.09 848 25.04 31.2 88.2 10 -3.2 26.3
17:05 1019 30.09 848 25.04 31.5 88.6 10 -2.9 26.8
17:10 1019 30.09 848 25.04 31.4 88.6 13 -0.4 31.2
17:15 1019 30.09 848 25.04 31.4 88.5 12 -1.3 29.6
17:20 1018 30.06 848 25.04 31.4 88.5 11 -1.8 28.8
17:25 1018 30.06 848 25.04 31.2 88.1 11 -2.8 26.9
17:30 1018 30.06 848 25.04 31 87.8 11 -2.7 27.2
17:35 1018 30.06 848 25.04 31.1 88 12 -1.4 29.4
17:40 1018 30.06 848 25.04 30.8 87.4 13 -0.5 31.1
17:45 1018 30.06 848 25.04 30.2 86.4 15 0.8 33.5
17:50 1018 30.06 847 25.01 29.9 85.9 15 0.6 33.1
17:55 1018 30.06 847 25.01 29.8 85.6 15 1 33.8
18:00 1018 30.06 847 25.01 29.9 85.8 19 3.9 38.9
18:05 1018 30.06 847 25.01 29.7 85.4 15 0.6 33
18:10 1018 30.06 847 25.01 29.6 85.3 17 2 35.5
18:15 1018 30.06 847 25.01 29.8 85.7 19 4.1 39.4
18:20 1018 30.06 847 25.01 29.8 85.7 22 6.2 43.2
18:25 1018 30.06 848 25.04 29.6 85.4 17 2.4 36.3
18:30 1018 30.06 848 25.04 29.7 85.4 15 0.8 33.4
18:35 1018 30.06 848 25.04 29.5 85.1 17 2.5 36.5
18:40 1018 30.06 847 25.01 29.5 85 17 2 35.6
18:45 1018 30.06 847 25.01 29 84.2 22 5.4 41.8
18:50 1018 30.06 847 25.01 28.5 83.3 23 6 42.8
18:55 1018 30.06 847 25.01 28.3 82.9 23 5.2 41.4
19:00 1018 30.06 847 25.01 28 82.3 26 6.9 44.4
19:05 1018 30.06 847 25.01 27.8 82 26 6.7 44.1
19:10 1018 30.06 847 25.01 27.2 80.9 26 6.3 43.3
19:15 1018 30.06 847 25.01 26.8 80.3 28 7 44.6
19:20 1018 30.06 847 25.01 26.7 80 28 6.9 44.4
19:25 1018 30.06 847 25.01 26.2 79.2 28 6.3 43.4
19:30 1018 30.06 847 25.01 25.7 78.2 29 6.3 43.4
19:35 1018 30.06 847 25.01 25.3 77.6 28 5.9 42.6
19:40 1018 30.06 848 25.04 25 77.1 30 6.3 43.4
19:45 1018 30.06 848 25.04 24.9 76.7 27 5 41
19:50 1018 30.06 848 25.04 24.4 75.9 33 7.3 45.1
19:55 1018 30.06 848 25.04 23.6 74.5 35 7.7 45.8
20:00 1018 30.06 848 25.04 23 73.4 35 6.9 44.5
20:05 1019 30.09 848 25.04 22.7 72.9 33 5.7 42.3
20:10 1019 30.09 848 25.04 23.4 74.1 31 5.7 42.2
20:15 1019 30.09 848 25.04 23.8 74.8 29 4.9 40.9
20:20 1019 30.09 848 25.04 23.8 74.9 29 5.1 41.3
20:25 1019 30.09 848 25.04 23.7 74.7 31 5.7 42.2
20:30 1019 30.09 848 25.04 23.5 74.3 29 4.7 40.4
20:35 1019 30.09 848 25.04 22.9 73.1 35 6.7 44
20:40 1019 30.09 848 25.04 22.2 72 27 2.3 36.2
20:45 1019 30.09 848 25.04 23.1 73.5 28 3.8 38.8
20:50 1019 30.09 848 25.04 23.1 73.5 30 4.6 40.3
20:55 1019 30.09 848 25.04 22.9 73.1 31 5.1 41.1
21:00 1019 30.09 848 25.04 22.5 72.5 29 4 39.2
21:05 1019 30.09 848 25.04 22.3 72.1 31 4.5 40.1
21:10 1019 30.09 848 25.04 22.2 72 28 2.8 37.1
21:15 1019 30.09 849 25.07 22.3 72.2 28 3.1 37.6
21:20 1019 30.09 849 25.07 21.9 71.4 30 3.8 38.8
21:25 1019 30.09 849 25.07 21.4 70.5 30 3.3 38
21:30 1019 30.09 849 25.07 21.2 70.1 30 2.9 37.2
21:35 1020 30.12 849 25.07 21 69.8 30 2.9 37.1
21:40 1020 30.12 849 25.07 20.6 69.2 30 2.6 36.6
21:45 1020 30.12 849 25.07 20.3 68.6 32 3.4 38.2
21:50 1020 30.12 849 25.07 19.9 67.9 33 3.4 38
21:55 1020 30.12 849 25.07 19.8 67.6 35 4 39.2
22:00 1020 30.12 849 25.07 19.7 67.4 33 3 37.5
22:05 1020 30.12 849 25.07 19.5 67.1 33 2.8 37.1
22:10 1020 30.12 849 25.07 19.5 67 33 3.1 37.6
22:15 1020 30.12 849 25.07 19 66.1 35 3.3 38
22:20 1020 30.12 849 25.07 18.9 66 30 1.2 34.2
22:25 1020 30.12 849 25.07 19.4 66.8 30 1.7 35
22:30 1020 30.12 849 25.07 19.6 67.3 28 0.6 33.1
22:35 1020 30.12 849 25.07 20.2 68.4 27 0.5 33
22:40 1020 30.12 849 25.07 20.6 69.1 24 -0.3 31.5
22:45 1020 30.12 849 25.07 21.6 70.9 24 0.5 32.9
22:50 1020 30.12 849 25.07 22 71.6 24 0.9 33.7
22:55 1020 30.12 849 25.07 21.6 70.9 28 2.3 36.2
23:00 1020 30.12 849 25.07 21.5 70.7 28 2.3 36.2
23:05 1020 30.12 850 25.1 22.5 72.4 26 2.4 36.4
23:10 1020 30.12 850 25.1 23 73.3 27 3 37.4
23:15 1020 30.12 850 25.1 22.7 72.8 27 3.1 37.6
23:20 1021 30.15 850 25.1 22.3 72.1 28 3.1 37.7
23:25 1021 30.15 850 25.1 22 71.6 28 3.1 37.5
23:30 1021 30.15 850 25.1 21.8 71.2 29 3 37.5
23:35 1021 30.15 850 25.1 21.8 71.3 29 2.9 37.3
23:40 1021 30.15 850 25.1 21.8 71.3 29 3.2 37.8
23:45 1021 30.15 850 25.1 22 71.5 29 3.2 37.7
23:50 1021 30.15 850 25.1 22 71.6 28 3.1 37.6
23:55 1021 30.15 850 25.1 22.1 71.7 29 3.2 37.7
24:00 1021 30.15 850 25.1 22.1 71.8 29 3.3 37.9